sensor_id;sensor_type;location;lat;lon;timestamp;P1;durP1;ratioP1;P2;durP2;ratioP2
43114;SDS011;28727;50.068;14.452;2022-09-09T00:02:18;59.17;;;56.37;;
43114;SDS011;28727;50.068;14.452;2022-09-09T00:04:58;59.17;;;56.43;;
43114;SDS011;28727;50.068;14.452;2022-09-09T00:10:13;57.53;;;54.87;;
43114;SDS011;28727;50.068;14.452;2022-09-09T00:13:04;56.50;;;53.77;;
43114;SDS011;28727;50.068;14.452;2022-09-09T00:16:04;56.70;;;54.10;;
43114;SDS011;28727;50.068;14.452;2022-09-09T00:18:50;53.50;;;51.00;;
43114;SDS011;28727;50.068;14.452;2022-09-09T00:21:25;57.80;;;55.03;;
43114;SDS011;28727;50.068;14.452;2022-09-09T00:24:10;54.97;;;52.37;;
43114;SDS011;28727;50.068;14.452;2022-09-09T00:26:51;55.60;;;52.90;;
43114;SDS011;28727;50.068;14.452;2022-09-09T00:32:16;60.97;;;58.10;;
43114;SDS011;28727;50.068;14.452;2022-09-09T00:34:54;55.67;;;53.00;;
43114;SDS011;28727;50.068;14.452;2022-09-09T00:37:29;52.50;;;49.97;;
43114;SDS011;28727;50.068;14.452;2022-09-09T00:40:18;55.03;;;52.43;;
43114;SDS011;28727;50.068;14.452;2022-09-09T00:43:21;56.13;;;53.47;;
43114;SDS011;28727;50.068;14.452;2022-09-09T00:49:19;56.63;;;53.90;;
43114;SDS011;28727;50.068;14.452;2022-09-09T00:52:18;59.40;;;56.57;;
43114;SDS011;28727;50.068;14.452;2022-09-09T00:55:04;55.33;;;52.73;;
43114;SDS011;28727;50.068;14.452;2022-09-09T00:57:42;56.97;;;54.27;;
43114;SDS011;28727;50.068;14.452;2022-09-09T01:11:09;54.90;;;52.30;;
43114;SDS011;28727;50.068;14.452;2022-09-09T01:13:49;57.10;;;54.40;;
43114;SDS011;28727;50.068;14.452;2022-09-09T01:16:32;55.70;;;53.05;;
43114;SDS011;28727;50.068;14.452;2022-09-09T01:19:04;55.80;;;53.20;;
43114;SDS011;28727;50.068;14.452;2022-09-09T01:21:45;56.63;;;54.00;;
43114;SDS011;28727;50.068;14.452;2022-09-09T01:24:24;54.27;;;51.67;;
43114;SDS011;28727;50.068;14.452;2022-09-09T01:27:15;55.33;;;52.60;;
43114;SDS011;28727;50.068;14.452;2022-09-09T01:29:50;54.77;;;52.13;;
43114;SDS011;28727;50.068;14.452;2022-09-09T01:38:34;55.97;;;53.27;;
43114;SDS011;28727;50.068;14.452;2022-09-09T01:41:07;55.20;;;52.58;;
43114;SDS011;28727;50.068;14.452;2022-09-09T01:43:47;54.47;;;51.87;;
43114;SDS011;28727;50.068;14.452;2022-09-09T01:46:21;57.33;;;54.63;;
43114;SDS011;28727;50.068;14.452;2022-09-09T01:51:27;55.87;;;53.27;;
43114;SDS011;28727;50.068;14.452;2022-09-09T01:54:02;56.83;;;54.10;;
43114;SDS011;28727;50.068;14.452;2022-09-09T01:56:47;53.37;;;50.87;;
43114;SDS011;28727;50.068;14.452;2022-09-09T01:59:30;58.07;;;55.27;;
43114;SDS011;28727;50.068;14.452;2022-09-09T02:05:19;53.00;;;50.50;;
43114;SDS011;28727;50.068;14.452;2022-09-09T02:08:06;54.60;;;51.97;;
43114;SDS011;28727;50.068;14.452;2022-09-09T02:11:17;55.93;;;53.30;;
43114;SDS011;28727;50.068;14.452;2022-09-09T02:14:04;58.03;;;55.20;;
43114;SDS011;28727;50.068;14.452;2022-09-09T02:16:56;54.30;;;51.70;;
43114;SDS011;28727;50.068;14.452;2022-09-09T02:19:53;54.10;;;51.47;;
43114;SDS011;28727;50.068;14.452;2022-09-09T02:22:41;57.43;;;54.73;;
43114;SDS011;28727;50.068;14.452;2022-09-09T02:25:19;55.97;;;53.37;;
43114;SDS011;28727;50.068;14.452;2022-09-09T02:27:55;55.87;;;53.17;;
43114;SDS011;28727;50.068;14.452;2022-09-09T02:30:30;55.97;;;53.23;;
43114;SDS011;28727;50.068;14.452;2022-09-09T02:33:06;55.90;;;53.27;;
43114;SDS011;28727;50.068;14.452;2022-09-09T02:35:47;57.70;;;54.90;;
43114;SDS011;28727;50.068;14.452;2022-09-09T02:38:24;54.37;;;51.77;;
43114;SDS011;28727;50.068;14.452;2022-09-09T02:41:06;55.23;;;52.53;;
43114;SDS011;28727;50.068;14.452;2022-09-09T02:43:39;54.07;;;51.47;;
43114;SDS011;28727;50.068;14.452;2022-09-09T02:49:11;54.40;;;51.83;;
43114;SDS011;28727;50.068;14.452;2022-09-09T02:54:34;55.03;;;52.40;;
43114;SDS011;28727;50.068;14.452;2022-09-09T02:57:16;57.33;;;54.50;;
43114;SDS011;28727;50.068;14.452;2022-09-09T02:59:52;51.17;;;48.67;;
43114;SDS011;28727;50.068;14.452;2022-09-09T03:02:24;52.60;;;50.03;;
43114;SDS011;28727;50.068;14.452;2022-09-09T03:05:01;56.77;;;54.07;;
43114;SDS011;28727;50.068;14.452;2022-09-09T03:07:33;51.97;;;49.47;;
43114;SDS011;28727;50.068;14.452;2022-09-09T03:10:06;52.77;;;50.27;;
43114;SDS011;28727;50.068;14.452;2022-09-09T03:12:40;55.17;;;52.58;;
43114;SDS011;28727;50.068;14.452;2022-09-09T03:15:11;51.77;;;49.27;;
43114;SDS011;28727;50.068;14.452;2022-09-09T03:17:44;54.90;;;52.30;;
43114;SDS011;28727;50.068;14.452;2022-09-09T03:20:15;53.47;;;50.87;;
43114;SDS011;28727;50.068;14.452;2022-09-09T03:22:47;53.20;;;50.67;;
43114;SDS011;28727;50.068;14.452;2022-09-09T03:25:19;51.73;;;49.27;;
43114;SDS011;28727;50.068;14.452;2022-09-09T03:27:51;52.87;;;50.37;;
43114;SDS011;28727;50.068;14.452;2022-09-09T03:30:27;51.23;;;48.83;;
43114;SDS011;28727;50.068;14.452;2022-09-09T03:33:00;53.67;;;51.17;;
43114;SDS011;28727;50.068;14.452;2022-09-09T03:35:36;52.80;;;50.20;;
43114;SDS011;28727;50.068;14.452;2022-09-09T03:38:07;49.97;;;47.60;;
43114;SDS011;28727;50.068;14.452;2022-09-09T03:40:47;54.73;;;52.20;;
43114;SDS011;28727;50.068;14.452;2022-09-09T03:43:28;54.33;;;51.73;;
43114;SDS011;28727;50.068;14.452;2022-09-09T03:46:01;61.47;;;58.60;;
43114;SDS011;28727;50.068;14.452;2022-09-09T03:48:33;53.43;;;50.87;;
43114;SDS011;28727;50.068;14.452;2022-09-09T03:51:09;56.30;;;53.50;;
43114;SDS011;28727;50.068;14.452;2022-09-09T03:53:41;57.17;;;54.30;;
43114;SDS011;28727;50.068;14.452;2022-09-09T03:56:14;59.37;;;56.53;;
43114;SDS011;28727;50.068;14.452;2022-09-09T03:58:46;56.07;;;53.33;;
43114;SDS011;28727;50.068;14.452;2022-09-09T04:01:18;59.83;;;56.90;;
43114;SDS011;28727;50.068;14.452;2022-09-09T04:03:50;61.27;;;58.27;;
43114;SDS011;28727;50.068;14.452;2022-09-09T04:06:24;59.80;;;56.90;;
43114;SDS011;28727;50.068;14.452;2022-09-09T04:08:57;62.43;;;59.43;;
43114;SDS011;28727;50.068;14.452;2022-09-09T04:11:30;60.80;;;57.90;;
43114;SDS011;28727;50.068;14.452;2022-09-09T04:14:03;61.57;;;58.57;;
43114;SDS011;28727;50.068;14.452;2022-09-09T04:16:37;71.05;;;67.55;;
43114;SDS011;28727;50.068;14.452;2022-09-09T04:19:09;61.70;;;58.70;;
43114;SDS011;28727;50.068;14.452;2022-09-09T04:21:45;62.47;;;59.50;;
43114;SDS011;28727;50.068;14.452;2022-09-09T04:24:16;63.93;;;60.80;;
43114;SDS011;28727;50.068;14.452;2022-09-09T04:26:48;63.63;;;60.53;;
43114;SDS011;28727;50.068;14.452;2022-09-09T04:29:20;61.10;;;58.20;;
43114;SDS011;28727;50.068;14.452;2022-09-09T04:31:52;61.87;;;58.90;;
43114;SDS011;28727;50.068;14.452;2022-09-09T04:34:24;64.87;;;61.67;;
43114;SDS011;28727;50.068;14.452;2022-09-09T04:36:58;67.37;;;64.17;;
43114;SDS011;28727;50.068;14.452;2022-09-09T04:39:32;67.70;;;64.50;;
43114;SDS011;28727;50.068;14.452;2022-09-09T04:42:05;63.27;;;60.30;;
43114;SDS011;28727;50.068;14.452;2022-09-09T04:44:36;60.27;;;57.40;;
43114;SDS011;28727;50.068;14.452;2022-09-09T04:47:08;61.37;;;58.40;;
43114;SDS011;28727;50.068;14.452;2022-09-09T04:49:40;62.73;;;59.80;;
43114;SDS011;28727;50.068;14.452;2022-09-09T04:52:12;62.33;;;59.40;;
43114;SDS011;28727;50.068;14.452;2022-09-09T04:54:44;61.07;;;58.07;;
43114;SDS011;28727;50.068;14.452;2022-09-09T04:57:16;62.17;;;59.23;;
43114;SDS011;28727;50.068;14.452;2022-09-09T05:02:22;65.53;;;62.43;;
43114;SDS011;28727;50.068;14.452;2022-09-09T05:04:54;68.17;;;64.97;;
43114;SDS011;28727;50.068;14.452;2022-09-09T05:07:27;63.90;;;60.87;;
43114;SDS011;28727;50.068;14.452;2022-09-09T05:10:00;62.23;;;59.23;;
43114;SDS011;28727;50.068;14.452;2022-09-09T05:12:31;65.53;;;62.37;;
43114;SDS011;28727;50.068;14.452;2022-09-09T05:15:03;63.80;;;60.80;;
43114;SDS011;28727;50.068;14.452;2022-09-09T05:17:36;65.23;;;62.13;;
43114;SDS011;28727;50.068;14.452;2022-09-09T05:20:08;65.37;;;62.17;;
43114;SDS011;28727;50.068;14.452;2022-09-09T05:22:43;66.93;;;63.57;;
43114;SDS011;28727;50.068;14.452;2022-09-09T05:25:15;65.23;;;61.97;;
43114;SDS011;28727;50.068;14.452;2022-09-09T05:27:47;66.83;;;63.63;;
43114;SDS011;28727;50.068;14.452;2022-09-09T05:30:18;68.37;;;65.17;;
43114;SDS011;28727;50.068;14.452;2022-09-09T05:32:51;67.63;;;64.33;;
43114;SDS011;28727;50.068;14.452;2022-09-09T05:35:23;63.23;;;60.30;;
43114;SDS011;28727;50.068;14.452;2022-09-09T05:37:58;65.80;;;62.63;;
43114;SDS011;28727;50.068;14.452;2022-09-09T05:40:32;65.20;;;62.10;;
43114;SDS011;28727;50.068;14.452;2022-09-09T05:43:03;71.00;;;67.47;;
43114;SDS011;28727;50.068;14.452;2022-09-09T05:45:35;69.60;;;66.30;;
43114;SDS011;28727;50.068;14.452;2022-09-09T05:48:07;69.93;;;66.63;;
43114;SDS011;28727;50.068;14.452;2022-09-09T05:50:39;69.10;;;65.77;;
43114;SDS011;28727;50.068;14.452;2022-09-09T05:53:10;68.60;;;65.40;;
43114;SDS011;28727;50.068;14.452;2022-09-09T05:55:42;66.30;;;63.13;;
43114;SDS011;28727;50.068;14.452;2022-09-09T05:58:15;68.53;;;65.30;;
43114;SDS011;28727;50.068;14.452;2022-09-09T06:00:48;75.63;;;72.03;;
43114;SDS011;28727;50.068;14.452;2022-09-09T06:03:20;68.03;;;64.83;;
43114;SDS011;28727;50.068;14.452;2022-09-09T06:05:59;69.17;;;65.77;;
43114;SDS011;28727;50.068;14.452;2022-09-09T06:08:36;70.23;;;66.73;;
43114;SDS011;28727;50.068;14.452;2022-09-09T06:11:13;66.80;;;63.60;;
43114;SDS011;28727;50.068;14.452;2022-09-09T06:16:19;69.63;;;66.23;;
43114;SDS011;28727;50.068;14.452;2022-09-09T06:18:55;70.67;;;67.07;;
43114;SDS011;28727;50.068;14.452;2022-09-09T06:21:31;71.00;;;67.50;;
43114;SDS011;28727;50.068;14.452;2022-09-09T06:24:10;72.07;;;68.47;;
43114;SDS011;28727;50.068;14.452;2022-09-09T06:26:45;71.63;;;68.13;;
43114;SDS011;28727;50.068;14.452;2022-09-09T06:29:22;67.10;;;63.87;;
43114;SDS011;28727;50.068;14.452;2022-09-09T06:31:55;76.40;;;72.53;;
43114;SDS011;28727;50.068;14.452;2022-09-09T06:34:30;76.35;;;72.57;;
43114;SDS011;28727;50.068;14.452;2022-09-09T06:37:03;80.03;;;76.03;;
43114;SDS011;28727;50.068;14.452;2022-09-09T06:39:41;77.03;;;73.33;;
43114;SDS011;28727;50.068;14.452;2022-09-09T06:42:13;77.23;;;73.63;;
43114;SDS011;28727;50.068;14.452;2022-09-09T06:45:00;80.13;;;76.23;;
43114;SDS011;28727;50.068;14.452;2022-09-09T06:47:48;84.23;;;80.07;;
43114;SDS011;28727;50.068;14.452;2022-09-09T06:50:20;84.40;;;80.50;;
43114;SDS011;28727;50.068;14.452;2022-09-09T06:52:53;85.07;;;81.13;;
43114;SDS011;28727;50.068;14.452;2022-09-09T06:55:25;88.23;;;84.13;;
43114;SDS011;28727;50.068;14.452;2022-09-09T06:57:57;91.20;;;86.87;;
43114;SDS011;28727;50.068;14.452;2022-09-09T07:00:30;95.13;;;90.67;;
43114;SDS011;28727;50.068;14.452;2022-09-09T07:03:02;97.50;;;92.90;;
43114;SDS011;28727;50.068;14.452;2022-09-09T07:05:36;90.78;;;86.50;;
43114;SDS011;28727;50.068;14.452;2022-09-09T07:08:08;96.37;;;91.83;;
43114;SDS011;28727;50.068;14.452;2022-09-09T07:10:39;99.83;;;95.10;;
43114;SDS011;28727;50.068;14.452;2022-09-09T07:13:11;96.87;;;92.27;;
43114;SDS011;28727;50.068;14.452;2022-09-09T07:15:43;97.30;;;92.70;;
43114;SDS011;28727;50.068;14.452;2022-09-09T07:18:15;94.23;;;89.83;;
43114;SDS011;28727;50.068;14.452;2022-09-09T07:20:53;96.53;;;92.00;;
43114;SDS011;28727;50.068;14.452;2022-09-09T07:23:26;92.67;;;88.37;;
43114;SDS011;28727;50.068;14.452;2022-09-09T07:25:58;99.83;;;95.17;;
43114;SDS011;28727;50.068;14.452;2022-09-09T07:28:31;107.47;;;102.47;;
43114;SDS011;28727;50.068;14.452;2022-09-09T07:31:03;111.53;;;106.37;;
43114;SDS011;28727;50.068;14.452;2022-09-09T07:33:36;106.10;;;101.20;;
43114;SDS011;28727;50.068;14.452;2022-09-09T07:36:14;101.15;;;96.47;;
43114;SDS011;28727;50.068;14.452;2022-09-09T07:39:08;116.73;;;111.43;;
43114;SDS011;28727;50.068;14.452;2022-09-09T07:41:43;112.17;;;107.03;;
43114;SDS011;28727;50.068;14.452;2022-09-09T07:44:21;115.43;;;110.17;;
43114;SDS011;28727;50.068;14.452;2022-09-09T07:47:03;109.37;;;104.37;;
43114;SDS011;28727;50.068;14.452;2022-09-09T07:49:48;104.00;;;99.10;;
43114;SDS011;28727;50.068;14.452;2022-09-09T07:52:25;101.37;;;96.77;;
43114;SDS011;28727;50.068;14.452;2022-09-09T07:55:03;104.73;;;99.90;;
43114;SDS011;28727;50.068;14.452;2022-09-09T07:57:36;105.32;;;100.53;;
43114;SDS011;28727;50.068;14.452;2022-09-09T08:00:09;99.93;;;95.30;;
43114;SDS011;28727;50.068;14.452;2022-09-09T08:02:48;99.47;;;94.93;;
43114;SDS011;28727;50.068;14.452;2022-09-09T08:05:19;100.67;;;96.13;;
43114;SDS011;28727;50.068;14.452;2022-09-09T08:07:52;96.27;;;91.73;;
43114;SDS011;28727;50.068;14.452;2022-09-09T08:10:24;104.17;;;99.00;;
43114;SDS011;28727;50.068;14.452;2022-09-09T08:12:58;94.53;;;89.93;;
43114;SDS011;28727;50.068;14.452;2022-09-09T08:15:48;95.50;;;91.00;;
43114;SDS011;28727;50.068;14.452;2022-09-09T08:18:23;95.07;;;90.53;;
43114;SDS011;28727;50.068;14.452;2022-09-09T08:20:55;95.53;;;90.87;;
43114;SDS011;28727;50.068;14.452;2022-09-09T08:23:26;92.80;;;88.43;;
43114;SDS011;28727;50.068;14.452;2022-09-09T08:26:05;93.40;;;88.93;;
43114;SDS011;28727;50.068;14.452;2022-09-09T08:28:38;96.33;;;91.77;;
43114;SDS011;28727;50.068;14.452;2022-09-09T08:31:15;96.72;;;92.15;;
43114;SDS011;28727;50.068;14.452;2022-09-09T08:33:49;95.33;;;90.90;;
43114;SDS011;28727;50.068;14.452;2022-09-09T08:36:25;95.83;;;91.33;;
43114;SDS011;28727;50.068;14.452;2022-09-09T08:38:58;90.35;;;86.05;;
43114;SDS011;28727;50.068;14.452;2022-09-09T08:44:50;91.57;;;87.27;;
43114;SDS011;28727;50.068;14.452;2022-09-09T08:50:19;93.30;;;88.90;;
43114;SDS011;28727;50.068;14.452;2022-09-09T08:55:50;99.60;;;94.87;;
43114;SDS011;28727;50.068;14.452;2022-09-09T08:58:31;96.20;;;91.77;;
43114;SDS011;28727;50.068;14.452;2022-09-09T09:13:18;100.70;;;95.93;;
43114;SDS011;28727;50.068;14.452;2022-09-09T09:18:49;103.57;;;98.87;;
43114;SDS011;28727;50.068;14.452;2022-09-09T09:21:27;105.25;;;100.22;;
43114;SDS011;28727;50.068;14.452;2022-09-09T09:24:12;107.80;;;102.90;;
43114;SDS011;28727;50.068;14.452;2022-09-09T09:26:56;109.80;;;104.67;;
43114;SDS011;28727;50.068;14.452;2022-09-09T09:29:29;109.77;;;104.80;;
43114;SDS011;28727;50.068;14.452;2022-09-09T09:32:00;113.57;;;108.40;;
43114;SDS011;28727;50.068;14.452;2022-09-09T09:34:34;112.63;;;107.40;;
43114;SDS011;28727;50.068;14.452;2022-09-09T09:37:12;119.33;;;113.77;;
43114;SDS011;28727;50.068;14.452;2022-09-09T09:39:51;115.20;;;110.03;;
43114;SDS011;28727;50.068;14.452;2022-09-09T09:42:47;120.10;;;114.63;;
43114;SDS011;28727;50.068;14.452;2022-09-09T09:48:02;122.10;;;116.70;;
43114;SDS011;28727;50.068;14.452;2022-09-09T09:53:27;132.13;;;126.13;;
43114;SDS011;28727;50.068;14.452;2022-09-09T09:56:02;127.77;;;122.07;;
43114;SDS011;28727;50.068;14.452;2022-09-09T10:01:29;133.80;;;127.73;;
43114;SDS011;28727;50.068;14.452;2022-09-09T10:04:15;128.90;;;123.13;;
43114;SDS011;28727;50.068;14.452;2022-09-09T10:06:47;126.53;;;120.93;;
43114;SDS011;28727;50.068;14.452;2022-09-09T10:09:23;126.17;;;120.53;;
43114;SDS011;28727;50.068;14.452;2022-09-09T10:12:00;128.33;;;122.63;;
43114;SDS011;28727;50.068;14.452;2022-09-09T10:14:55;123.40;;;117.87;;
43114;SDS011;28727;50.068;14.452;2022-09-09T10:17:38;121.47;;;116.03;;
43114;SDS011;28727;50.068;14.452;2022-09-09T10:23:22;120.20;;;114.77;;
43114;SDS011;28727;50.068;14.452;2022-09-09T10:26:27;121.77;;;116.37;;
43114;SDS011;28727;50.068;14.452;2022-09-09T10:40:38;121.97;;;116.40;;
43114;SDS011;28727;50.068;14.452;2022-09-09T10:51:46;123.30;;;117.80;;
43114;SDS011;28727;50.068;14.452;2022-09-09T10:54:29;122.70;;;117.13;;
43114;SDS011;28727;50.068;14.452;2022-09-09T10:57:10;127.17;;;121.37;;
43114;SDS011;28727;50.068;14.452;2022-09-09T10:59:48;117.13;;;111.87;;
43114;SDS011;28727;50.068;14.452;2022-09-09T11:02:31;119.37;;;114.13;;
43114;SDS011;28727;50.068;14.452;2022-09-09T11:05:20;125.60;;;120.10;;
43114;SDS011;28727;50.068;14.452;2022-09-09T11:08:01;123.37;;;117.97;;
43114;SDS011;28727;50.068;14.452;2022-09-09T11:10:38;122.40;;;117.00;;
43114;SDS011;28727;50.068;14.452;2022-09-09T11:13:53;119.63;;;114.13;;
43114;SDS011;28727;50.068;14.452;2022-09-09T11:19:00;114.73;;;109.57;;
43114;SDS011;28727;50.068;14.452;2022-09-09T11:21:55;109.00;;;104.17;;
43114;SDS011;28727;50.068;14.452;2022-09-09T11:24:32;108.57;;;103.60;;
43114;SDS011;28727;50.068;14.452;2022-09-09T11:27:29;112.40;;;107.23;;
43114;SDS011;28727;50.068;14.452;2022-09-09T11:30:21;110.97;;;105.90;;
43114;SDS011;28727;50.068;14.452;2022-09-09T11:36:35;108.27;;;103.27;;
43114;SDS011;28727;50.068;14.452;2022-09-09T11:42:20;101.57;;;97.00;;
43114;SDS011;28727;50.068;14.452;2022-09-09T11:44:53;98.10;;;93.60;;
43114;SDS011;28727;50.068;14.452;2022-09-09T11:47:27;101.77;;;97.03;;
43114;SDS011;28727;50.068;14.452;2022-09-09T11:50:22;98.87;;;94.17;;
43114;SDS011;28727;50.068;14.452;2022-09-09T11:55:45;96.05;;;91.68;;
43114;SDS011;28727;50.068;14.452;2022-09-09T11:58:17;96.00;;;91.63;;
43114;SDS011;28727;50.068;14.452;2022-09-09T12:00:50;96.15;;;91.75;;
43114;SDS011;28727;50.068;14.452;2022-09-09T12:06:25;90.40;;;86.30;;
43114;SDS011;28727;50.068;14.452;2022-09-09T12:09:07;95.07;;;90.40;;
43114;SDS011;28727;50.068;14.452;2022-09-09T12:11:46;89.63;;;85.43;;
43114;SDS011;28727;50.068;14.452;2022-09-09T12:19:47;93.27;;;88.93;;
43114;SDS011;28727;50.068;14.452;2022-09-09T12:24:56;95.03;;;87.37;;
43114;SDS011;28727;50.068;14.452;2022-09-09T12:28:04;86.63;;;82.53;;
43114;SDS011;28727;50.068;14.452;2022-09-09T12:30:45;86.23;;;82.10;;
43114;SDS011;28727;50.068;14.452;2022-09-09T12:33:39;87.27;;;83.17;;
43114;SDS011;28727;50.068;14.452;2022-09-09T12:36:18;82.27;;;78.40;;
43114;SDS011;28727;50.068;14.452;2022-09-09T12:38:53;80.60;;;76.77;;
43114;SDS011;28727;50.068;14.452;2022-09-09T12:41:27;79.65;;;75.95;;
43114;SDS011;28727;50.068;14.452;2022-09-09T12:44:06;81.82;;;77.85;;
43114;SDS011;28727;50.068;14.452;2022-09-09T12:46:41;77.90;;;74.30;;
43114;SDS011;28727;50.068;14.452;2022-09-09T12:49:23;78.37;;;74.70;;
43114;SDS011;28727;50.068;14.452;2022-09-09T12:51:58;78.57;;;74.90;;
43114;SDS011;28727;50.068;14.452;2022-09-09T12:54:33;78.47;;;74.72;;
43114;SDS011;28727;50.068;14.452;2022-09-09T12:57:09;76.23;;;72.53;;
43114;SDS011;28727;50.068;14.452;2022-09-09T12:59:43;76.80;;;73.10;;
43114;SDS011;28727;50.068;14.452;2022-09-09T13:02:23;73.27;;;69.83;;
43114;SDS011;28727;50.068;14.452;2022-09-09T13:05:08;70.93;;;67.53;;
43114;SDS011;28727;50.068;14.452;2022-09-09T13:07:47;71.80;;;68.30;;
43114;SDS011;28727;50.068;14.452;2022-09-09T13:10:26;73.00;;;69.43;;
43114;SDS011;28727;50.068;14.452;2022-09-09T13:13:17;70.43;;;67.07;;
43114;SDS011;28727;50.068;14.452;2022-09-09T13:16:01;74.17;;;70.67;;
43114;SDS011;28727;50.068;14.452;2022-09-09T13:18:36;75.50;;;71.83;;
43114;SDS011;28727;50.068;14.452;2022-09-09T13:21:11;73.90;;;70.27;;
43114;SDS011;28727;50.068;14.452;2022-09-09T13:23:48;70.67;;;67.37;;
43114;SDS011;28727;50.068;14.452;2022-09-09T13:28:53;72.23;;;68.80;;
43114;SDS011;28727;50.068;14.452;2022-09-09T13:31:29;74.67;;;71.17;;
43114;SDS011;28727;50.068;14.452;2022-09-09T13:37:05;71.70;;;68.23;;
43114;SDS011;28727;50.068;14.452;2022-09-09T13:39:50;73.30;;;69.83;;
43114;SDS011;28727;50.068;14.452;2022-09-09T13:42:28;71.83;;;68.53;;
43114;SDS011;28727;50.068;14.452;2022-09-09T13:45:02;72.90;;;69.43;;
43114;SDS011;28727;50.068;14.452;2022-09-09T13:47:36;78.23;;;74.47;;
43114;SDS011;28727;50.068;14.452;2022-09-09T13:53:01;75.83;;;72.10;;
43114;SDS011;28727;50.068;14.452;2022-09-09T13:55:32;75.23;;;71.67;;
43114;SDS011;28727;50.068;14.452;2022-09-09T13:58:14;79.37;;;75.60;;
43114;SDS011;28727;50.068;14.452;2022-09-09T14:00:48;77.47;;;73.83;;
43114;SDS011;28727;50.068;14.452;2022-09-09T14:03:21;79.73;;;75.93;;
43114;SDS011;28727;50.068;14.452;2022-09-09T14:05:52;79.27;;;75.53;;
43114;SDS011;28727;50.068;14.452;2022-09-09T14:08:25;73.93;;;70.43;;
43114;SDS011;28727;50.068;14.452;2022-09-09T14:10:58;80.27;;;76.33;;
43114;SDS011;28727;50.068;14.452;2022-09-09T14:13:30;82.33;;;78.50;;
43114;SDS011;28727;50.068;14.452;2022-09-09T14:16:02;81.97;;;78.17;;
43114;SDS011;28727;50.068;14.452;2022-09-09T14:18:34;76.87;;;73.17;;
43114;SDS011;28727;50.068;14.452;2022-09-09T14:21:05;79.70;;;75.97;;
43114;SDS011;28727;50.068;14.452;2022-09-09T14:23:37;78.20;;;74.57;;
43114;SDS011;28727;50.068;14.452;2022-09-09T14:26:09;77.77;;;74.27;;
43114;SDS011;28727;50.068;14.452;2022-09-09T14:28:41;78.37;;;74.67;;
43114;SDS011;28727;50.068;14.452;2022-09-09T14:31:25;79.28;;;75.68;;
43114;SDS011;28727;50.068;14.452;2022-09-09T14:33:57;78.33;;;74.37;;
43114;SDS011;28727;50.068;14.452;2022-09-09T14:36:30;80.87;;;77.00;;
43114;SDS011;28727;50.068;14.452;2022-09-09T14:39:01;80.73;;;76.87;;
43114;SDS011;28727;50.068;14.452;2022-09-09T14:41:33;83.00;;;79.23;;
43114;SDS011;28727;50.068;14.452;2022-09-09T14:44:05;80.67;;;76.73;;
43114;SDS011;28727;50.068;14.452;2022-09-09T14:46:36;80.63;;;76.83;;
43114;SDS011;28727;50.068;14.452;2022-09-09T14:49:08;79.10;;;75.50;;
43114;SDS011;28727;50.068;14.452;2022-09-09T14:51:41;80.70;;;76.97;;
43114;SDS011;28727;50.068;14.452;2022-09-09T14:54:13;79.87;;;76.23;;
43114;SDS011;28727;50.068;14.452;2022-09-09T14:56:46;80.43;;;76.67;;
43114;SDS011;28727;50.068;14.452;2022-09-09T14:59:18;80.87;;;77.07;;
43114;SDS011;28727;50.068;14.452;2022-09-09T15:01:53;78.20;;;74.60;;
43114;SDS011;28727;50.068;14.452;2022-09-09T15:04:25;83.27;;;79.27;;
43114;SDS011;28727;50.068;14.452;2022-09-09T15:06:56;77.63;;;73.97;;
43114;SDS011;28727;50.068;14.452;2022-09-09T15:12:02;83.73;;;79.77;;
43114;SDS011;28727;50.068;14.452;2022-09-09T15:14:35;82.57;;;78.77;;
43114;SDS011;28727;50.068;14.452;2022-09-09T15:17:07;81.50;;;77.60;;
43114;SDS011;28727;50.068;14.452;2022-09-09T15:19:39;78.77;;;75.07;;
43114;SDS011;28727;50.068;14.452;2022-09-09T15:22:10;82.03;;;78.10;;
43114;SDS011;28727;50.068;14.452;2022-09-09T15:24:42;84.03;;;80.07;;
43114;SDS011;28727;50.068;14.452;2022-09-09T15:27:13;79.53;;;75.87;;
43114;SDS011;28727;50.068;14.452;2022-09-09T15:29:45;81.67;;;77.90;;
43114;SDS011;28727;50.068;14.452;2022-09-09T15:32:20;81.60;;;77.73;;
43114;SDS011;28727;50.068;14.452;2022-09-09T15:34:52;82.03;;;78.23;;
43114;SDS011;28727;50.068;14.452;2022-09-09T15:37:24;80.70;;;76.80;;
43114;SDS011;28727;50.068;14.452;2022-09-09T15:39:56;83.77;;;79.57;;
43114;SDS011;28727;50.068;14.452;2022-09-09T15:42:30;78.25;;;74.55;;
43114;SDS011;28727;50.068;14.452;2022-09-09T15:45:04;83.33;;;79.37;;
43114;SDS011;28727;50.068;14.452;2022-09-09T15:47:37;77.90;;;74.20;;
43114;SDS011;28727;50.068;14.452;2022-09-09T15:50:08;78.27;;;74.47;;
43114;SDS011;28727;50.068;14.452;2022-09-09T15:52:41;77.53;;;73.80;;
43114;SDS011;28727;50.068;14.452;2022-09-09T15:55:13;75.80;;;72.17;;
43114;SDS011;28727;50.068;14.452;2022-09-09T15:57:44;78.33;;;74.53;;
43114;SDS011;28727;50.068;14.452;2022-09-09T16:00:16;77.83;;;74.13;;
43114;SDS011;28727;50.068;14.452;2022-09-09T16:02:48;78.07;;;74.27;;
43114;SDS011;28727;50.068;14.452;2022-09-09T16:05:20;80.17;;;76.37;;
43114;SDS011;28727;50.068;14.452;2022-09-09T16:07:52;78.17;;;74.37;;
43114;SDS011;28727;50.068;14.452;2022-09-09T16:10:23;79.73;;;75.90;;
43114;SDS011;28727;50.068;14.452;2022-09-09T16:12:55;76.00;;;72.40;;
43114;SDS011;28727;50.068;14.452;2022-09-09T16:15:26;82.47;;;78.50;;
43114;SDS011;28727;50.068;14.452;2022-09-09T16:17:58;75.43;;;71.87;;
43114;SDS011;28727;50.068;14.452;2022-09-09T16:20:30;79.57;;;75.60;;
43114;SDS011;28727;50.068;14.452;2022-09-09T16:23:01;74.87;;;71.40;;
43114;SDS011;28727;50.068;14.452;2022-09-09T16:25:33;78.97;;;75.17;;
43114;SDS011;28727;50.068;14.452;2022-09-09T16:28:04;73.23;;;69.80;;
43114;SDS011;28727;50.068;14.452;2022-09-09T16:30:36;79.63;;;75.80;;
43114;SDS011;28727;50.068;14.452;2022-09-09T16:33:08;74.60;;;71.10;;
43114;SDS011;28727;50.068;14.452;2022-09-09T16:35:40;79.63;;;75.73;;
43114;SDS011;28727;50.068;14.452;2022-09-09T16:38:12;78.20;;;74.47;;
43114;SDS011;28727;50.068;14.452;2022-09-09T16:40:43;80.87;;;76.97;;
43114;SDS011;28727;50.068;14.452;2022-09-09T16:43:15;78.17;;;74.47;;
43114;SDS011;28727;50.068;14.452;2022-09-09T16:45:47;79.63;;;75.73;;
43114;SDS011;28727;50.068;14.452;2022-09-09T16:48:19;77.67;;;73.97;;
43114;SDS011;28727;50.068;14.452;2022-09-09T16:51:00;77.50;;;73.77;;
43114;SDS011;28727;50.068;14.452;2022-09-09T16:53:52;77.70;;;74.00;;
43114;SDS011;28727;50.068;14.452;2022-09-09T16:56:27;83.78;;;79.70;;
43114;SDS011;28727;50.068;14.452;2022-09-09T16:59:02;81.80;;;77.90;;
43114;SDS011;28727;50.068;14.452;2022-09-09T17:01:37;77.30;;;73.70;;
43114;SDS011;28727;50.068;14.452;2022-09-09T17:04:19;78.90;;;75.20;;
43114;SDS011;28727;50.068;14.452;2022-09-09T17:06:56;78.18;;;74.35;;
43114;SDS011;28727;50.068;14.452;2022-09-09T17:09:31;75.23;;;71.70;;
43114;SDS011;28727;50.068;14.452;2022-09-09T17:12:03;75.80;;;72.20;;